Jan Peña

Главный скаут - Leganés
20 Фев 2028
Воскресенье
Продолжить

Характер

Адаптивность (2) Амбиции (3) Скандальность (19) Верность (8) Стрессоустойчивость (13) Профессионализм (1) Благородство (17) Темперамент (18)

Профиль

Стиль управления Демократичный
Лицензия Континентальная C
Решительность 6
Управление людьми 6
Мотивация 13
Дисциплина 6
Удовлетворённость
100%
Усталость
0%
Должность Главный скаут
Зарплата 85.9K в нед.
Контракт 14.03.2030

Производительность

Поведение Хорошее
Эффективность тренировок
43%
Развитие игроков
25%
Профилактика травм
45%
Тактическая реализация
45%

Недавние события

Оценил игрока только что
Участвовал в селекционном совещании только что
Оценил игрока только что
Участвовал в селекционном совещании 7 дн. назад
Оценил игрока 7 дн. назад
Оценил игрока 7 дн. назад
Оценил игрока 7 дн. назад
Посетил матч 7 дн. назад

Текущее наблюдение

100
Игрок Клуб Статус Способность Уверенность Наблюдений Последнее наблюдение Последний голос
Trey Nyoni Rotherham United Активный 134 / 146 40% 3 18.02.2028 -
Amir Mohammad Razzaghinia Zob Ahan Активный 123 / 113 40% 1 18.02.2028 -
Kyrylo Dihtiar Zorya Активный 102 / 106 40% 1 15.02.2028 -
Jorthy Mokio ADO Den Haag Активный 144 / 131 40% 1 15.02.2028 -
Ronan Kpakio Cardiff City Активный 118 / 127 40% 5 14.02.2028 -
Émile Fontaine Chamois Niortais Активный 130 / 122 40% 1 14.02.2028 -
David Valencia Alianza Petrolera Активный 118 / 131 40% 9 11.02.2028 -
Jan Bürger Gillingham Активный 105 / 125 40% 2 11.02.2028 -
Luis Otávio Colorado Rapids Активный 128 / 124 40% 4 10.02.2028 -
Jofre Torrents Ajax Активный 140 / 135 40% 2 10.02.2028 -
Keagan Phiri Platinum Stars Активный 87 / 99 40% 1 09.02.2028 -
Majid Rezaeian Rah Ahan Активный 116 / 112 40% 1 07.02.2028 -
Martim Cunha Porto Активный 101 / 108 40% 1 07.02.2028 -
Alexis Vossah FC Nantes Активный 121 / 128 40% 1 06.02.2028 -
Jorge Salinas Racing Santander Активный 134 / 134 40% 1 06.02.2028 -
Ernie Weaver AFC Wimbledon Активный 104 / 123 40% 1 05.02.2028 -
Aarón Martín Al-Qadisiyah Активный 117 / 117 40% 1 04.02.2028 -
Harbor Miller LA Galaxy Активный 114 / 97 40% 1 04.02.2028 -
Nhoa Sangui Chamois Niortais Активный 133 / 132 40% 1 03.02.2028 -
Adam Aznou Everton Активный 119 / 125 40% 2 02.02.2028 -
Gopolang Taunyane CR Belouizdad Активный 102 / 102 40% 1 02.02.2028 -
Mikkel Hope Haugesund Активный 118 / 115 40% 4 31.01.2028 -
Toni Fruk Udinese Переговоры 132 / 133 89% 1 31.01.2028 -
Celías Ingenthron Vélez Активный 122 / 128 40% 3 25.01.2028 -
Darryl Bakola Padova Активный 120 / 117 40% 1 25.01.2028 -
Tobías Andrada Virtus Entella Активный 127 / 134 40% 2 24.01.2028 -
Konstantin Tyukavin Liverpool Отчёт готов 132 / 133 66% 1 17.01.2028 -
Kota Tawaratsumida Racing Genk Отчёт готов 133 / 136 66% 1 17.01.2028 -
Nazareno Roselli Defensa y Justicia Активный 103 / 119 40% 5 01.01.2028 -
Mao Hosoya Everton Переговоры 134 / 135 90% 1 01.01.2028 -
Buba Sangaré Elche Активный 134 / 131 40% 1 31.12.2027 -
Izan Merino Málaga Активный 139 / 126 40% 3 30.12.2027 -
Agustín Obregón River Plate Активный 130 / 126 40% 5 30.12.2027 -
Thiago Helguera Braga Активный 131 / 128 40% 2 26.12.2027 -
Olaniyi Saheed Kwara United Активный 105 / 92 40% 2 25.12.2027 -
Ricky Atletico Venezuela Активный 104 / 100 40% 4 22.12.2027 -
Álvaro Navoni Tigre Активный 92 / 85 40% 2 22.12.2027 -
Tiago Parente Benfica Активный 102 / 119 40% 1 19.12.2027 -
Joel Ezra Enyimba Активный 76 / 111 40% 3 18.12.2027 -
Dmitry Pestryakov Dinamo Moscow Активный 129 / 119 40% 2 17.12.2027 -
Josh Nichols Tranmere Rovers Активный 112 / 128 40% 4 16.12.2027 -
Germán Barbas Penarol Активный 124 / 121 40% 1 15.12.2027 -
Diego Vargas San Marcos de Arica Активный 89 / 91 40% 5 13.12.2027 -
Hervin Goyes Deportivo Pasto Активный 103 / 103 40% 7 11.12.2027 -
Felipe Obradovich Ferro Carril Oeste Активный 125 / 118 40% 3 10.12.2027 -
Mauro Carrizo Atlético Tucumán Активный 100 / 112 40% 3 06.12.2027 -
Elkin Rivero Atletico Nacional Активный 90 / 118 40% 1 05.12.2027 -
Ignacio Fernández Boston River Активный 95 / 91 40% 2 04.12.2027 -
Mads Bomholt Stabaek Активный 90 / 115 40% 3 01.12.2027 -
Samuel Martín Millonarios Активный 102 / 108 40% 1 01.12.2027 -
Alejandro Almaraz Nueva Chicago Активный 103 / 108 40% 1 25.11.2027 -
Juan Morán Godoy Cruz Активный 113 / 122 40% 2 21.11.2027 -
Gift Udoh Ikorodu City Активный 96 / 87 40% 4 20.11.2027 -
Tyson Pearce St. Louis CITY SC Активный 91 / 99 40% 1 19.11.2027 -
Emiliano Bértoli Patronato Активный 77 / 88 40% 1 14.11.2027 -
Sebastián Ramírez Jaguares Активный 106 / 116 40% 5 12.11.2027 -
Ulises Giménez River Plate Активный 131 / 114 40% 2 11.11.2027 -
Giovanni Leoni Bradford City Активный 126 / 148 40% 1 07.11.2027 -
Fillip Jenssen Riise Stabaek Активный 80 / 108 40% 2 28.10.2027 -
Martín Jiménez Audax Italiano Активный 113 / 95 40% 1 21.10.2027 -
Esteban de Lima Tacuarembo Активный 89 / 101 40% 1 16.10.2027 -
Octavio Ontivero Lanús Активный 108 / 116 40% 1 15.10.2027 -
Jovan Milosavljević Kalmar FF Активный 108 / 96 40% 1 13.10.2027 -
José Correa Deportivo Tachira Активный 77 / 91 40% 1 23.08.2027 -
José Cavadia Aguilas Doradas Активный 125 / 125 40% 1 23.08.2027 -
Teo Rodríguez Pagano River Plate Активный 98 / 126 40% 1 16.08.2027 -
Pedro de la Vega FC Dallas Активный 133 / 134 66% 1 01.06.2027 -
Leonardo Mendicino Bari Активный 125 / 130 40% 1 31.05.2027 -
Lucas Høgsberg RC Strasbourg Активный 123 / 141 40% 1 07.01.2027 -
Matías Gómez Granada Активный 100 / 121 40% 1 07.01.2027 -
Kevin Vazquez Cruz Azul Активный 154 / 144 40% 3 02.01.2027 -
Caleb Yirenkyi Coventry City Активный 141 / 147 40% 1 31.12.2026 -
Jan Virgili Club Brugge Активный 143 / 130 40% 1 29.12.2026 -
Ethan Williams Peterborough United Активный 101 / 112 40% 2 28.12.2026 -
Jesús Rodríguez Como Активный 129 / 150 40% 1 27.12.2026 -
Gorka Gorosabel Real Sociedad Активный 103 / 119 67% 2 26.12.2026 -
Hakim Sulemana Medeama Активный 87 / 106 40% 1 26.12.2026 -
Robert FC Copenhagen Активный 145 / 128 40% 1 25.12.2026 -
Matheus Gonçalves Al-Ahli Активный 118 / 124 40% 1 21.12.2026 -
Othmane Maamma Watford Активный 128 / 128 40% 1 18.12.2026 -
Siphelele Mthembu Jomo Cosmos Активный 70 / 99 40% 1 15.12.2026 -
Josh King Chelsea Активный 124 / 150 40% 2 12.12.2026 -
Tomás Aranda Boca Juniors Активный 97 / 111 40% 1 10.12.2026 -
Arda Güler Real Madrid Активный 149 / 149 40% 2 09.12.2026 -
Ignacio Perruzzi San Lorenzo Активный 115 / 140 40% 5 08.12.2026 -
Kevin Álvarez Patriotas Активный 118 / 115 40% 1 04.12.2026 -
Caylan Vickers Burton Albion Активный 107 / 117 40% 1 02.12.2026 -
Samuel Lucero Defensa y Justicia Активный 98 / 129 40% 1 01.12.2026 -
Artem Slesar Zorya Активный 108 / 118 40% 1 30.11.2026 -
Lautaro Millán Aston Villa Активный 134 / 120 40% 1 24.11.2026 -
Giovanni Baroni Talleres Активный 116 / 127 40% 1 23.11.2026 -
El Hadji Malick Diouf Brentford Активный 149 / 149 40% 2 19.11.2026 -
Leo Castledine Middlesbrough Активный 139 / 131 40% 1 18.11.2026 -
Nico O'Reilly Manchester City Активный 161 / 164 40% 2 17.11.2026 -
Axel Frugone Defensor Sporting Активный 110 / 108 40% 1 04.11.2026 -
Noah Sadiki Sunderland Активный 138 / 152 40% 2 03.11.2026 -
Nazareno Kihm Ferro Carril Oeste Активный 86 / 122 40% 2 12.10.2026 -
Emilio Giaccone Unión de Santa Fe Активный 93 / 95 40% 1 01.09.2026 -
Ignacio Campo Huracán Активный 111 / 117 40% 1 01.09.2026 -
Daniel Sappa San Miguel Активный 92 / 105 40% 1 03.08.2026 -